sensor_id;sensor_type;location;lat;lon;timestamp;temperature;humidity
1704;DHT22;849;48.780;9.216;2023-07-31T00:01:27;20.30;99.90
1704;DHT22;849;48.780;9.216;2023-07-31T00:03:58;20.30;99.90
1704;DHT22;849;48.780;9.216;2023-07-31T00:06:29;20.30;99.90
1704;DHT22;849;48.780;9.216;2023-07-31T00:09:00;20.30;99.90
1704;DHT22;849;48.780;9.216;2023-07-31T00:11:31;20.20;99.90
1704;DHT22;849;48.780;9.216;2023-07-31T00:14:02;20.20;99.90
1704;DHT22;849;48.780;9.216;2023-07-31T00:16:33;20.10;99.90
1704;DHT22;849;48.780;9.216;2023-07-31T00:19:03;20.00;99.90
1704;DHT22;849;48.780;9.216;2023-07-31T00:21:34;19.90;99.90
1704;DHT22;849;48.780;9.216;2023-07-31T00:24:05;19.80;99.90
1704;DHT22;849;48.780;9.216;2023-07-31T00:26:36;19.80;99.90
1704;DHT22;849;48.780;9.216;2023-07-31T00:29:06;19.80;99.90
1704;DHT22;849;48.780;9.216;2023-07-31T00:31:37;19.80;99.90
1704;DHT22;849;48.780;9.216;2023-07-31T00:34:08;19.70;99.90
1704;DHT22;849;48.780;9.216;2023-07-31T00:36:39;19.80;99.90
1704;DHT22;849;48.780;9.216;2023-07-31T00:39:09;19.80;99.90
1704;DHT22;849;48.780;9.216;2023-07-31T00:41:40;19.70;99.90
1704;DHT22;849;48.780;9.216;2023-07-31T00:44:11;19.70;99.90
1704;DHT22;849;48.780;9.216;2023-07-31T00:46:42;19.70;99.90
1704;DHT22;849;48.780;9.216;2023-07-31T00:49:13;19.70;99.90
1704;DHT22;849;48.780;9.216;2023-07-31T00:51:44;19.70;99.60
1704;DHT22;849;48.780;9.216;2023-07-31T00:54:15;19.70;99.90
1704;DHT22;849;48.780;9.216;2023-07-31T00:56:46;19.70;99.80
1704;DHT22;849;48.780;9.216;2023-07-31T00:59:19;19.80;99.80
1704;DHT22;849;48.780;9.216;2023-07-31T01:01:50;19.80;99.60
1704;DHT22;849;48.780;9.216;2023-07-31T01:04:17;19.80;99.90
1704;DHT22;849;48.780;9.216;2023-07-31T01:06:54;19.80;99.90
1704;DHT22;849;48.780;9.216;2023-07-31T01:09:55;19.80;99.90
1704;DHT22;849;48.780;9.216;2023-07-31T01:12:27;19.90;99.90
1704;DHT22;849;48.780;9.216;2023-07-31T01:15:07;20.00;99.90
1704;DHT22;849;48.780;9.216;2023-07-31T01:17:42;20.00;99.90
1704;DHT22;849;48.780;9.216;2023-07-31T01:20:22;20.10;99.90
1704;DHT22;849;48.780;9.216;2023-07-31T01:26:05;19.90;99.90
1704;DHT22;849;48.780;9.216;2023-07-31T01:28:46;19.80;99.90
1704;DHT22;849;48.780;9.216;2023-07-31T01:31:22;19.60;99.90
1704;DHT22;849;48.780;9.216;2023-07-31T01:33:56;19.50;99.90
1704;DHT22;849;48.780;9.216;2023-07-31T01:36:28;19.40;99.90
1704;DHT22;849;48.780;9.216;2023-07-31T01:39:00;19.30;99.90
1704;DHT22;849;48.780;9.216;2023-07-31T01:41:31;19.30;99.90
1704;DHT22;849;48.780;9.216;2023-07-31T01:44:02;19.30;99.90
1704;DHT22;849;48.780;9.216;2023-07-31T01:46:32;19.20;99.90
1704;DHT22;849;48.780;9.216;2023-07-31T01:49:03;19.20;99.90
1704;DHT22;849;48.780;9.216;2023-07-31T01:51:36;19.30;99.90
1704;DHT22;849;48.780;9.216;2023-07-31T01:54:06;19.40;99.90
1704;DHT22;849;48.780;9.216;2023-07-31T01:56:37;19.40;99.90
1704;DHT22;849;48.780;9.216;2023-07-31T01:59:08;19.50;99.90
1704;DHT22;849;48.780;9.216;2023-07-31T02:01:39;19.50;99.90
1704;DHT22;849;48.780;9.216;2023-07-31T02:04:10;19.50;99.90
1704;DHT22;849;48.780;9.216;2023-07-31T02:06:40;19.40;99.90
1704;DHT22;849;48.780;9.216;2023-07-31T02:09:11;19.40;99.90
1704;DHT22;849;48.780;9.216;2023-07-31T02:11:42;19.50;99.90
1704;DHT22;849;48.780;9.216;2023-07-31T02:14:13;19.50;99.90
1704;DHT22;849;48.780;9.216;2023-07-31T02:16:44;19.50;99.90
1704;DHT22;849;48.780;9.216;2023-07-31T02:19:14;19.60;99.90
1704;DHT22;849;48.780;9.216;2023-07-31T02:21:45;19.50;99.90
1704;DHT22;849;48.780;9.216;2023-07-31T02:24:16;19.60;99.90
1704;DHT22;849;48.780;9.216;2023-07-31T02:26:47;19.40;99.90
1704;DHT22;849;48.780;9.216;2023-07-31T02:29:13;19.40;99.90
1704;DHT22;849;48.780;9.216;2023-07-31T02:31:44;19.40;99.90
1704;DHT22;849;48.780;9.216;2023-07-31T02:34:10;19.60;99.90
1704;DHT22;849;48.780;9.216;2023-07-31T02:36:41;19.60;99.90
1704;DHT22;849;48.780;9.216;2023-07-31T02:39:11;19.50;99.90
1704;DHT22;849;48.780;9.216;2023-07-31T02:41:37;19.40;99.90
1704;DHT22;849;48.780;9.216;2023-07-31T02:44:08;19.40;99.90
1704;DHT22;849;48.780;9.216;2023-07-31T02:46:40;19.40;99.90
1704;DHT22;849;48.780;9.216;2023-07-31T02:49:11;19.40;99.90
1704;DHT22;849;48.780;9.216;2023-07-31T02:51:42;19.60;99.90
1704;DHT22;849;48.780;9.216;2023-07-31T02:54:13;19.70;99.90
1704;DHT22;849;48.780;9.216;2023-07-31T02:56:43;19.50;99.90
1704;DHT22;849;48.780;9.216;2023-07-31T02:59:15;19.60;99.90
1704;DHT22;849;48.780;9.216;2023-07-31T03:01:46;19.40;99.80
1704;DHT22;849;48.780;9.216;2023-07-31T03:04:16;19.30;99.90
1704;DHT22;849;48.780;9.216;2023-07-31T03:06:47;19.30;99.90
1704;DHT22;849;48.780;9.216;2023-07-31T03:09:18;19.40;99.80
1704;DHT22;849;48.780;9.216;2023-07-31T03:11:49;19.30;99.70
1704;DHT22;849;48.780;9.216;2023-07-31T03:14:20;19.30;99.60
1704;DHT22;849;48.780;9.216;2023-07-31T03:16:50;19.30;99.70
1704;DHT22;849;48.780;9.216;2023-07-31T03:19:21;19.10;99.60
1704;DHT22;849;48.780;9.216;2023-07-31T03:21:52;19.00;99.90
1704;DHT22;849;48.780;9.216;2023-07-31T03:24:23;18.80;99.90
1704;DHT22;849;48.780;9.216;2023-07-31T03:26:49;18.80;99.90
1704;DHT22;849;48.780;9.216;2023-07-31T03:29:20;19.10;99.90
1704;DHT22;849;48.780;9.216;2023-07-31T03:31:50;19.10;99.90
1704;DHT22;849;48.780;9.216;2023-07-31T03:34:21;19.30;99.90
1704;DHT22;849;48.780;9.216;2023-07-31T03:36:52;19.20;99.90
1704;DHT22;849;48.780;9.216;2023-07-31T03:39:23;19.10;99.90
1704;DHT22;849;48.780;9.216;2023-07-31T03:41:54;19.10;99.90
1704;DHT22;849;48.780;9.216;2023-07-31T03:44:25;19.10;99.90
1704;DHT22;849;48.780;9.216;2023-07-31T03:46:55;19.20;99.90
1704;DHT22;849;48.780;9.216;2023-07-31T03:49:26;19.30;99.90
1704;DHT22;849;48.780;9.216;2023-07-31T03:51:57;19.40;99.90
1704;DHT22;849;48.780;9.216;2023-07-31T03:54:29;19.50;99.90
1704;DHT22;849;48.780;9.216;2023-07-31T03:56:55;19.50;99.90
1704;DHT22;849;48.780;9.216;2023-07-31T03:59:26;19.60;99.90
1704;DHT22;849;48.780;9.216;2023-07-31T04:01:57;19.60;99.90
1704;DHT22;849;48.780;9.216;2023-07-31T04:04:23;19.60;99.90
1704;DHT22;849;48.780;9.216;2023-07-31T04:06:54;19.60;99.90
1704;DHT22;849;48.780;9.216;2023-07-31T04:09:24;19.60;99.90
1704;DHT22;849;48.780;9.216;2023-07-31T04:11:55;19.40;99.90
1704;DHT22;849;48.780;9.216;2023-07-31T04:14:26;19.30;99.90
1704;DHT22;849;48.780;9.216;2023-07-31T04:16:57;19.20;99.70
1704;DHT22;849;48.780;9.216;2023-07-31T04:19:27;19.20;99.80
1704;DHT22;849;48.780;9.216;2023-07-31T04:21:58;19.10;99.50
1704;DHT22;849;48.780;9.216;2023-07-31T04:24:30;19.10;99.30
1704;DHT22;849;48.780;9.216;2023-07-31T04:27:00;19.20;99.50
1704;DHT22;849;48.780;9.216;2023-07-31T04:29:31;19.10;99.10
1704;DHT22;849;48.780;9.216;2023-07-31T04:32:02;19.10;99.30
1704;DHT22;849;48.780;9.216;2023-07-31T04:34:33;19.20;99.30
1704;DHT22;849;48.780;9.216;2023-07-31T04:37:04;19.10;99.20
1704;DHT22;849;48.780;9.216;2023-07-31T04:39:34;19.10;99.30
1704;DHT22;849;48.780;9.216;2023-07-31T04:42:05;19.20;99.20
1704;DHT22;849;48.780;9.216;2023-07-31T04:44:36;19.30;99.20
1704;DHT22;849;48.780;9.216;2023-07-31T04:47:07;19.20;98.90
1704;DHT22;849;48.780;9.216;2023-07-31T04:49:37;19.20;99.50
1704;DHT22;849;48.780;9.216;2023-07-31T04:52:08;19.10;99.40
1704;DHT22;849;48.780;9.216;2023-07-31T04:54:34;19.30;99.30
1704;DHT22;849;48.780;9.216;2023-07-31T04:57:06;19.40;99.10
1704;DHT22;849;48.780;9.216;2023-07-31T04:59:37;19.70;99.00
1704;DHT22;849;48.780;9.216;2023-07-31T05:02:08;19.70;98.60
1704;DHT22;849;48.780;9.216;2023-07-31T05:04:39;19.90;98.70
1704;DHT22;849;48.780;9.216;2023-07-31T05:07:10;19.70;98.40
1704;DHT22;849;48.780;9.216;2023-07-31T05:09:40;19.70;98.60
1704;DHT22;849;48.780;9.216;2023-07-31T05:12:11;19.90;98.70
1704;DHT22;849;48.780;9.216;2023-07-31T05:14:42;20.00;98.50
1704;DHT22;849;48.780;9.216;2023-07-31T05:17:13;20.10;98.50
1704;DHT22;849;48.780;9.216;2023-07-31T05:19:44;20.00;99.00
1704;DHT22;849;48.780;9.216;2023-07-31T05:22:15;20.10;98.60
1704;DHT22;849;48.780;9.216;2023-07-31T05:24:46;20.20;98.60
1704;DHT22;849;48.780;9.216;2023-07-31T05:27:16;20.10;98.20
1704;DHT22;849;48.780;9.216;2023-07-31T05:29:49;20.10;97.90
1704;DHT22;849;48.780;9.216;2023-07-31T05:32:19;19.90;98.30
1704;DHT22;849;48.780;9.216;2023-07-31T05:34:51;19.90;98.40
1704;DHT22;849;48.780;9.216;2023-07-31T05:37:23;20.00;98.50
1704;DHT22;849;48.780;9.216;2023-07-31T05:39:53;20.00;98.70
1704;DHT22;849;48.780;9.216;2023-07-31T05:42:24;20.10;98.80
1704;DHT22;849;48.780;9.216;2023-07-31T05:44:55;20.10;98.70
1704;DHT22;849;48.780;9.216;2023-07-31T05:47:26;20.10;98.90
1704;DHT22;849;48.780;9.216;2023-07-31T05:49:52;20.20;99.10
1704;DHT22;849;48.780;9.216;2023-07-31T05:52:23;20.20;99.00
1704;DHT22;849;48.780;9.216;2023-07-31T05:54:54;20.20;99.10
1704;DHT22;849;48.780;9.216;2023-07-31T05:57:24;20.40;99.60
1704;DHT22;849;48.780;9.216;2023-07-31T05:59:55;20.50;99.30
1704;DHT22;849;48.780;9.216;2023-07-31T06:02:26;20.50;98.70
1704;DHT22;849;48.780;9.216;2023-07-31T06:04:57;20.50;98.50
1704;DHT22;849;48.780;9.216;2023-07-31T06:07:28;20.30;98.50
1704;DHT22;849;48.780;9.216;2023-07-31T06:09:58;20.20;98.10
1704;DHT22;849;48.780;9.216;2023-07-31T06:12:36;20.10;99.00
1704;DHT22;849;48.780;9.216;2023-07-31T06:15:06;20.10;98.90
1704;DHT22;849;48.780;9.216;2023-07-31T06:17:37;20.10;99.10
1704;DHT22;849;48.780;9.216;2023-07-31T06:20:08;20.10;98.90
1704;DHT22;849;48.780;9.216;2023-07-31T06:22:40;20.40;99.10
1704;DHT22;849;48.780;9.216;2023-07-31T06:25:12;20.40;99.20
1704;DHT22;849;48.780;9.216;2023-07-31T06:27:43;20.40;99.00
1704;DHT22;849;48.780;9.216;2023-07-31T06:30:13;20.50;99.10
1704;DHT22;849;48.780;9.216;2023-07-31T06:32:44;20.70;98.90
1704;DHT22;849;48.780;9.216;2023-07-31T06:35:15;20.70;98.00
1704;DHT22;849;48.780;9.216;2023-07-31T06:37:46;20.70;98.00
1704;DHT22;849;48.780;9.216;2023-07-31T06:40:16;20.70;97.60
1704;DHT22;849;48.780;9.216;2023-07-31T06:42:47;20.80;97.50
1704;DHT22;849;48.780;9.216;2023-07-31T06:45:18;20.80;97.10
1704;DHT22;849;48.780;9.216;2023-07-31T06:47:49;20.80;97.10
1704;DHT22;849;48.780;9.216;2023-07-31T06:50:19;20.90;97.50
1704;DHT22;849;48.780;9.216;2023-07-31T06:52:50;21.00;96.80
1704;DHT22;849;48.780;9.216;2023-07-31T06:55:22;21.10;96.80
1704;DHT22;849;48.780;9.216;2023-07-31T06:57:55;21.00;96.40
1704;DHT22;849;48.780;9.216;2023-07-31T07:00:26;21.00;96.70
1704;DHT22;849;48.780;9.216;2023-07-31T07:02:52;20.90;96.20
1704;DHT22;849;48.780;9.216;2023-07-31T07:05:23;21.10;96.70
1704;DHT22;849;48.780;9.216;2023-07-31T07:07:54;21.10;96.80
1704;DHT22;849;48.780;9.216;2023-07-31T07:10:25;21.10;96.10
1704;DHT22;849;48.780;9.216;2023-07-31T07:12:56;21.10;96.50
1704;DHT22;849;48.780;9.216;2023-07-31T07:15:26;21.20;95.70
1704;DHT22;849;48.780;9.216;2023-07-31T07:17:57;21.10;96.60
1704;DHT22;849;48.780;9.216;2023-07-31T07:20:28;21.20;96.50
1704;DHT22;849;48.780;9.216;2023-07-31T07:22:59;21.20;95.60
1704;DHT22;849;48.780;9.216;2023-07-31T07:25:29;21.10;95.90
1704;DHT22;849;48.780;9.216;2023-07-31T07:28:00;21.40;95.70
1704;DHT22;849;48.780;9.216;2023-07-31T07:30:31;21.40;95.80
1704;DHT22;849;48.780;9.216;2023-07-31T07:33:02;21.40;95.70
1704;DHT22;849;48.780;9.216;2023-07-31T07:35:34;21.40;95.20
1704;DHT22;849;48.780;9.216;2023-07-31T07:38:02;21.60;95.20
1704;DHT22;849;48.780;9.216;2023-07-31T07:40:32;21.70;95.30
1704;DHT22;849;48.780;9.216;2023-07-31T07:43:03;21.80;95.50
1704;DHT22;849;48.780;9.216;2023-07-31T07:45:34;21.80;95.40
1704;DHT22;849;48.780;9.216;2023-07-31T07:48:05;21.90;94.80
1704;DHT22;849;48.780;9.216;2023-07-31T07:50:37;21.90;95.10
1704;DHT22;849;48.780;9.216;2023-07-31T07:53:08;21.90;95.50
1704;DHT22;849;48.780;9.216;2023-07-31T07:55:39;22.00;95.20
1704;DHT22;849;48.780;9.216;2023-07-31T07:58:10;22.10;95.00
1704;DHT22;849;48.780;9.216;2023-07-31T08:00:40;22.20;94.30
1704;DHT22;849;48.780;9.216;2023-07-31T08:03:11;22.20;94.20
1704;DHT22;849;48.780;9.216;2023-07-31T08:05:43;22.10;93.90
1704;DHT22;849;48.780;9.216;2023-07-31T08:08:15;22.00;94.40
1704;DHT22;849;48.780;9.216;2023-07-31T08:10:49;22.10;93.80
1704;DHT22;849;48.780;9.216;2023-07-31T08:13:19;22.10;93.60
1704;DHT22;849;48.780;9.216;2023-07-31T08:15:50;22.10;93.90
1704;DHT22;849;48.780;9.216;2023-07-31T08:18:21;22.10;94.40
1704;DHT22;849;48.780;9.216;2023-07-31T08:20:52;22.00;93.40
1704;DHT22;849;48.780;9.216;2023-07-31T08:23:23;22.00;93.30
1704;DHT22;849;48.780;9.216;2023-07-31T08:25:53;22.10;93.60
1704;DHT22;849;48.780;9.216;2023-07-31T08:28:25;21.70;93.50
1704;DHT22;849;48.780;9.216;2023-07-31T08:30:56;21.90;93.80
1704;DHT22;849;48.780;9.216;2023-07-31T08:33:27;21.40;92.90
1704;DHT22;849;48.780;9.216;2023-07-31T08:35:58;21.50;93.50
1704;DHT22;849;48.780;9.216;2023-07-31T08:38:29;21.70;94.50
1704;DHT22;849;48.780;9.216;2023-07-31T08:41:00;21.90;93.50
1704;DHT22;849;48.780;9.216;2023-07-31T08:43:36;22.00;93.80
1704;DHT22;849;48.780;9.216;2023-07-31T08:46:08;22.10;94.30
1704;DHT22;849;48.780;9.216;2023-07-31T08:48:41;22.00;92.20
1704;DHT22;849;48.780;9.216;2023-07-31T08:51:14;22.00;92.20
1704;DHT22;849;48.780;9.216;2023-07-31T08:53:45;21.80;93.10
1704;DHT22;849;48.780;9.216;2023-07-31T08:56:16;21.70;92.90
1704;DHT22;849;48.780;9.216;2023-07-31T08:58:48;21.80;93.50
1704;DHT22;849;48.780;9.216;2023-07-31T09:01:20;22.10;93.50
1704;DHT22;849;48.780;9.216;2023-07-31T09:03:52;22.40;94.00
1704;DHT22;849;48.780;9.216;2023-07-31T09:06:25;22.70;93.30
1704;DHT22;849;48.780;9.216;2023-07-31T09:08:52;22.80;93.60
1704;DHT22;849;48.780;9.216;2023-07-31T09:11:24;22.80;92.80
1704;DHT22;849;48.780;9.216;2023-07-31T09:13:57;22.90;91.90
1704;DHT22;849;48.780;9.216;2023-07-31T09:16:28;23.00;92.30
1704;DHT22;849;48.780;9.216;2023-07-31T09:19:02;23.00;92.50
1704;DHT22;849;48.780;9.216;2023-07-31T09:21:34;23.20;93.20
1704;DHT22;849;48.780;9.216;2023-07-31T09:24:31;23.30;92.70
1704;DHT22;849;48.780;9.216;2023-07-31T09:27:02;23.10;90.00
1704;DHT22;849;48.780;9.216;2023-07-31T09:29:33;23.00;93.40
1704;DHT22;849;48.780;9.216;2023-07-31T09:32:04;22.90;91.70
1704;DHT22;849;48.780;9.216;2023-07-31T09:34:38;23.00;92.50
1704;DHT22;849;48.780;9.216;2023-07-31T09:37:12;23.10;91.70
1704;DHT22;849;48.780;9.216;2023-07-31T09:39:49;22.70;91.70
1704;DHT22;849;48.780;9.216;2023-07-31T09:42:26;22.60;91.40
1704;DHT22;849;48.780;9.216;2023-07-31T09:45:07;22.80;92.40
1704;DHT22;849;48.780;9.216;2023-07-31T09:47:39;22.90;91.60
1704;DHT22;849;48.780;9.216;2023-07-31T09:50:16;22.70;91.00
1704;DHT22;849;48.780;9.216;2023-07-31T09:52:48;22.70;93.00
1704;DHT22;849;48.780;9.216;2023-07-31T09:55:19;23.00;92.80
1704;DHT22;849;48.780;9.216;2023-07-31T09:57:50;23.10;92.50
1704;DHT22;849;48.780;9.216;2023-07-31T10:00:21;23.30;92.30
1704;DHT22;849;48.780;9.216;2023-07-31T10:02:59;23.40;92.60
1704;DHT22;849;48.780;9.216;2023-07-31T10:05:36;23.60;92.20
1704;DHT22;849;48.780;9.216;2023-07-31T10:08:09;23.70;91.60
1704;DHT22;849;48.780;9.216;2023-07-31T10:10:44;23.70;90.90
1704;DHT22;849;48.780;9.216;2023-07-31T10:13:16;23.60;90.30
1704;DHT22;849;48.780;9.216;2023-07-31T10:15:48;23.30;91.20
1704;DHT22;849;48.780;9.216;2023-07-31T10:18:19;23.10;90.00
1704;DHT22;849;48.780;9.216;2023-07-31T10:20:51;22.70;89.90
1704;DHT22;849;48.780;9.216;2023-07-31T10:23:23;22.30;90.00
1704;DHT22;849;48.780;9.216;2023-07-31T10:25:57;22.30;90.80
1704;DHT22;849;48.780;9.216;2023-07-31T10:28:29;22.60;91.30
1704;DHT22;849;48.780;9.216;2023-07-31T10:31:03;22.40;90.40
1704;DHT22;849;48.780;9.216;2023-07-31T10:33:34;22.60;90.70
1704;DHT22;849;48.780;9.216;2023-07-31T10:36:19;22.70;90.50
1704;DHT22;849;48.780;9.216;2023-07-31T10:38:50;23.00;90.10
1704;DHT22;849;48.780;9.216;2023-07-31T10:41:31;23.10;92.10
1704;DHT22;849;48.780;9.216;2023-07-31T10:44:02;23.10;91.20
1704;DHT22;849;48.780;9.216;2023-07-31T10:46:33;23.20;90.00
1704;DHT22;849;48.780;9.216;2023-07-31T10:49:04;23.20;90.90
1704;DHT22;849;48.780;9.216;2023-07-31T10:51:35;23.50;91.10
1704;DHT22;849;48.780;9.216;2023-07-31T10:54:13;23.40;88.70
1704;DHT22;849;48.780;9.216;2023-07-31T10:56:52;23.40;90.40
1704;DHT22;849;48.780;9.216;2023-07-31T10:59:27;23.70;88.60
1704;DHT22;849;48.780;9.216;2023-07-31T11:01:58;23.50;87.10
1704;DHT22;849;48.780;9.216;2023-07-31T11:04:33;23.40;87.80
1704;DHT22;849;48.780;9.216;2023-07-31T11:07:04;23.50;88.10
1704;DHT22;849;48.780;9.216;2023-07-31T11:09:38;23.60;90.00
1704;DHT22;849;48.780;9.216;2023-07-31T11:12:09;23.50;87.10
1704;DHT22;849;48.780;9.216;2023-07-31T11:14:42;23.40;88.10
1704;DHT22;849;48.780;9.216;2023-07-31T11:17:13;23.50;88.30
1704;DHT22;849;48.780;9.216;2023-07-31T11:19:44;23.60;86.50
1704;DHT22;849;48.780;9.216;2023-07-31T11:22:15;23.70;88.10
1704;DHT22;849;48.780;9.216;2023-07-31T11:24:47;23.90;86.90
1704;DHT22;849;48.780;9.216;2023-07-31T11:27:17;23.60;86.80
1704;DHT22;849;48.780;9.216;2023-07-31T11:29:51;23.80;89.30
1704;DHT22;849;48.780;9.216;2023-07-31T11:32:23;24.10;89.40
1704;DHT22;849;48.780;9.216;2023-07-31T11:34:54;24.30;88.70
1704;DHT22;849;48.780;9.216;2023-07-31T11:37:41;24.40;86.30
1704;DHT22;849;48.780;9.216;2023-07-31T11:40:12;24.40;86.10
1704;DHT22;849;48.780;9.216;2023-07-31T11:42:43;24.20;85.80
1704;DHT22;849;48.780;9.216;2023-07-31T11:45:14;24.00;86.50
1704;DHT22;849;48.780;9.216;2023-07-31T11:47:45;24.10;87.60
1704;DHT22;849;48.780;9.216;2023-07-31T11:50:16;23.90;85.50
1704;DHT22;849;48.780;9.216;2023-07-31T11:52:48;24.00;88.30
1704;DHT22;849;48.780;9.216;2023-07-31T11:55:21;24.20;86.20
1704;DHT22;849;48.780;9.216;2023-07-31T11:57:54;24.40;88.70
1704;DHT22;849;48.780;9.216;2023-07-31T12:00:26;24.50;88.40
1704;DHT22;849;48.780;9.216;2023-07-31T12:02:58;24.30;87.00
1704;DHT22;849;48.780;9.216;2023-07-31T12:05:29;24.20;87.20
1704;DHT22;849;48.780;9.216;2023-07-31T12:08:00;24.40;86.30
1704;DHT22;849;48.780;9.216;2023-07-31T12:10:39;24.50;90.80
1704;DHT22;849;48.780;9.216;2023-07-31T12:13:20;24.70;88.20
1704;DHT22;849;48.780;9.216;2023-07-31T12:15:58;24.80;86.90
1704;DHT22;849;48.780;9.216;2023-07-31T12:18:34;24.80;84.90
1704;DHT22;849;48.780;9.216;2023-07-31T12:21:08;24.70;87.60
1704;DHT22;849;48.780;9.216;2023-07-31T12:23:38;24.60;85.00
1704;DHT22;849;48.780;9.216;2023-07-31T12:26:14;24.00;84.50
1704;DHT22;849;48.780;9.216;2023-07-31T12:28:46;23.80;86.00
1704;DHT22;849;48.780;9.216;2023-07-31T12:31:19;23.90;88.70
1704;DHT22;849;48.780;9.216;2023-07-31T12:33:51;24.10;87.10
1704;DHT22;849;48.780;9.216;2023-07-31T12:36:23;24.20;88.70
1704;DHT22;849;48.780;9.216;2023-07-31T12:38:54;24.40;88.60
1704;DHT22;849;48.780;9.216;2023-07-31T12:41:27;24.20;86.10
1704;DHT22;849;48.780;9.216;2023-07-31T12:43:58;24.30;90.00
1704;DHT22;849;48.780;9.216;2023-07-31T12:46:29;24.40;89.30
1704;DHT22;849;48.780;9.216;2023-07-31T12:48:59;24.40;85.50
1704;DHT22;849;48.780;9.216;2023-07-31T12:51:30;24.10;84.70
1704;DHT22;849;48.780;9.216;2023-07-31T12:54:01;24.30;85.30
1704;DHT22;849;48.780;9.216;2023-07-31T12:56:32;24.10;85.00
1704;DHT22;849;48.780;9.216;2023-07-31T12:59:03;24.30;87.00
1704;DHT22;849;48.780;9.216;2023-07-31T13:01:33;24.40;86.30
1704;DHT22;849;48.780;9.216;2023-07-31T13:04:04;24.10;82.80
1704;DHT22;849;48.780;9.216;2023-07-31T13:06:35;23.90;86.30
1704;DHT22;849;48.780;9.216;2023-07-31T13:09:06;24.00;86.80
1704;DHT22;849;48.780;9.216;2023-07-31T13:11:37;24.20;88.50
1704;DHT22;849;48.780;9.216;2023-07-31T13:14:07;24.40;86.50
1704;DHT22;849;48.780;9.216;2023-07-31T13:16:38;24.20;85.90
1704;DHT22;849;48.780;9.216;2023-07-31T13:19:09;24.00;85.00
1704;DHT22;849;48.780;9.216;2023-07-31T13:21:40;24.20;85.70
1704;DHT22;849;48.780;9.216;2023-07-31T13:24:11;24.20;85.70
1704;DHT22;849;48.780;9.216;2023-07-31T13:26:42;24.10;84.70
1704;DHT22;849;48.780;9.216;2023-07-31T13:29:12;24.20;86.40
1704;DHT22;849;48.780;9.216;2023-07-31T13:31:43;24.20;86.90
1704;DHT22;849;48.780;9.216;2023-07-31T13:34:14;24.50;88.70
1704;DHT22;849;48.780;9.216;2023-07-31T13:36:45;24.60;87.60
1704;DHT22;849;48.780;9.216;2023-07-31T13:39:16;24.70;83.40
1704;DHT22;849;48.780;9.216;2023-07-31T13:41:47;24.60;82.20
1704;DHT22;849;48.780;9.216;2023-07-31T13:44:18;24.40;82.50
1704;DHT22;849;48.780;9.216;2023-07-31T13:46:49;24.40;82.70
1704;DHT22;849;48.780;9.216;2023-07-31T13:49:20;24.30;81.70
1704;DHT22;849;48.780;9.216;2023-07-31T13:51:50;24.60;82.80
1704;DHT22;849;48.780;9.216;2023-07-31T13:54:22;24.70;84.70
1704;DHT22;849;48.780;9.216;2023-07-31T13:56:53;24.90;84.20
1704;DHT22;849;48.780;9.216;2023-07-31T13:59:24;24.90;82.10
1704;DHT22;849;48.780;9.216;2023-07-31T14:01:55;25.00;87.00
1704;DHT22;849;48.780;9.216;2023-07-31T14:04:29;25.00;83.40
1704;DHT22;849;48.780;9.216;2023-07-31T14:06:59;25.20;84.70
1704;DHT22;849;48.780;9.216;2023-07-31T14:09:30;25.30;82.70
1704;DHT22;849;48.780;9.216;2023-07-31T14:12:01;25.00;81.30
1704;DHT22;849;48.780;9.216;2023-07-31T14:14:32;25.00;84.00
1704;DHT22;849;48.780;9.216;2023-07-31T14:17:04;24.80;83.40
1704;DHT22;849;48.780;9.216;2023-07-31T14:19:35;24.80;82.10
1704;DHT22;849;48.780;9.216;2023-07-31T14:22:06;24.70;83.30
1704;DHT22;849;48.780;9.216;2023-07-31T14:24:38;24.90;85.20
1704;DHT22;849;48.780;9.216;2023-07-31T14:27:08;25.00;84.60
1704;DHT22;849;48.780;9.216;2023-07-31T14:29:39;25.10;86.10
1704;DHT22;849;48.780;9.216;2023-07-31T14:32:10;25.30;85.90
1704;DHT22;849;48.780;9.216;2023-07-31T14:34:41;25.40;87.60
1704;DHT22;849;48.780;9.216;2023-07-31T14:37:11;25.50;88.00
1704;DHT22;849;48.780;9.216;2023-07-31T14:39:42;25.60;85.90
1704;DHT22;849;48.780;9.216;2023-07-31T14:42:13;25.50;83.20
1704;DHT22;849;48.780;9.216;2023-07-31T14:44:44;25.40;85.80
1704;DHT22;849;48.780;9.216;2023-07-31T14:47:17;25.40;84.90
1704;DHT22;849;48.780;9.216;2023-07-31T14:49:48;25.60;84.90
1704;DHT22;849;48.780;9.216;2023-07-31T14:52:19;25.50;84.90
1704;DHT22;849;48.780;9.216;2023-07-31T14:54:45;25.60;85.40
1704;DHT22;849;48.780;9.216;2023-07-31T14:57:16;25.40;83.50
1704;DHT22;849;48.780;9.216;2023-07-31T14:59:47;25.50;84.80
1704;DHT22;849;48.780;9.216;2023-07-31T15:02:18;25.60;83.80
1704;DHT22;849;48.780;9.216;2023-07-31T15:04:48;25.60;82.30
1704;DHT22;849;48.780;9.216;2023-07-31T15:07:19;25.50;80.80
1704;DHT22;849;48.780;9.216;2023-07-31T15:09:50;25.40;80.40
1704;DHT22;849;48.780;9.216;2023-07-31T15:12:21;25.60;82.80
1704;DHT22;849;48.780;9.216;2023-07-31T15:14:52;25.90;81.10
1704;DHT22;849;48.780;9.216;2023-07-31T15:17:23;26.20;81.00
1704;DHT22;849;48.780;9.216;2023-07-31T15:19:54;26.40;80.90
1704;DHT22;849;48.780;9.216;2023-07-31T15:22:26;26.60;81.00
1704;DHT22;849;48.780;9.216;2023-07-31T15:24:57;26.70;80.30
1704;DHT22;849;48.780;9.216;2023-07-31T15:27:27;26.80;76.00
1704;DHT22;849;48.780;9.216;2023-07-31T15:29:58;26.80;79.70
1704;DHT22;849;48.780;9.216;2023-07-31T15:32:29;27.10;76.10
1704;DHT22;849;48.780;9.216;2023-07-31T15:35:00;27.40;74.90
1704;DHT22;849;48.780;9.216;2023-07-31T15:37:30;27.50;74.00
1704;DHT22;849;48.780;9.216;2023-07-31T15:40:01;27.80;71.40
1704;DHT22;849;48.780;9.216;2023-07-31T15:42:32;28.20;68.50
1704;DHT22;849;48.780;9.216;2023-07-31T15:45:08;28.30;68.10
1704;DHT22;849;48.780;9.216;2023-07-31T15:47:40;28.50;68.80
1704;DHT22;849;48.780;9.216;2023-07-31T15:50:11;28.60;69.10
1704;DHT22;849;48.780;9.216;2023-07-31T15:52:42;28.70;66.60
1704;DHT22;849;48.780;9.216;2023-07-31T15:55:13;28.90;66.00
1704;DHT22;849;48.780;9.216;2023-07-31T15:57:43;28.80;66.70
1704;DHT22;849;48.780;9.216;2023-07-31T16:00:14;29.00;67.60
1704;DHT22;849;48.780;9.216;2023-07-31T16:02:45;29.10;64.60
1704;DHT22;849;48.780;9.216;2023-07-31T16:05:16;29.30;63.10
1704;DHT22;849;48.780;9.216;2023-07-31T16:07:47;29.40;64.60
1704;DHT22;849;48.780;9.216;2023-07-31T16:10:17;29.30;62.20
1704;DHT22;849;48.780;9.216;2023-07-31T16:12:48;29.10;62.90
1704;DHT22;849;48.780;9.216;2023-07-31T16:15:19;29.10;64.70
1704;DHT22;849;48.780;9.216;2023-07-31T16:17:50;29.20;67.80
1704;DHT22;849;48.780;9.216;2023-07-31T16:20:21;29.00;65.90
1704;DHT22;849;48.780;9.216;2023-07-31T16:22:52;29.20;66.10
1704;DHT22;849;48.780;9.216;2023-07-31T16:25:22;29.40;64.60
1704;DHT22;849;48.780;9.216;2023-07-31T16:27:53;29.20;62.20
1704;DHT22;849;48.780;9.216;2023-07-31T16:30:24;28.70;63.90
1704;DHT22;849;48.780;9.216;2023-07-31T16:32:55;28.20;63.40
1704;DHT22;849;48.780;9.216;2023-07-31T16:35:26;27.90;66.40
1704;DHT22;849;48.780;9.216;2023-07-31T16:37:57;27.90;66.70
1704;DHT22;849;48.780;9.216;2023-07-31T16:40:27;28.10;66.50
1704;DHT22;849;48.780;9.216;2023-07-31T16:42:58;28.70;67.30
1704;DHT22;849;48.780;9.216;2023-07-31T16:45:29;29.40;64.10
1704;DHT22;849;48.780;9.216;2023-07-31T16:48:00;29.60;62.50